Time;durP1;ratioP1;P1;durP2;ratioP2;P2;SDS_P1;SDS_P2;PMS_P1;PMS_P2;Temp;Humidity;BMP_temperature;BMP_pressure;BME280_temperature;BME280_humidity;BME280_pressure;Samples;Min_cycle;Max_cycle;Signal;HPM_P1;HPM_P2
2022/12/03 00:01:32;;;;;;;;;;;8.80;99.90;;;;;;5012931;28;19992;-78
2022/12/03 00:03:58;;;;;;;;;;;8.80;99.90;;;;;;5012881;28;19914;-77
2022/12/03 00:06:23;;;;;;;;;;;8.80;99.90;;;;;;5013228;28;20397;-77
2022/12/03 00:08:49;;;;;;;;;;;8.80;99.90;;;;;;5012582;28;19909;-82
2022/12/03 00:11:14;;;;;;;;;;;8.80;99.90;;;;;;5013258;28;20091;-77
2022/12/03 00:13:40;;;;;;;;;;;8.80;99.90;;;;;;5013219;28;19910;-77
2022/12/03 00:16:06;;;;;;;;;;;8.80;99.90;;;;;;5012758;28;19910;-77
2022/12/03 00:18:31;;;;;;;;;;;8.90;99.90;;;;;;5012250;28;19913;-77
2022/12/03 00:20:57;;;;;;;;;;;8.90;99.90;;;;;;5012438;28;19956;-77
2022/12/03 00:23:22;;;;;;;;;;;8.90;99.90;;;;;;5012987;28;19909;-77
2022/12/03 00:25:48;;;;;;;;;;;8.90;99.90;;;;;;5011573;28;20374;-82
2022/12/03 00:28:13;;;;;;;;;;;8.90;99.90;;;;;;5011606;28;20024;-77
2022/12/03 00:30:39;;;;;;;;;;;8.90;99.90;;;;;;5012579;28;20026;-81
2022/12/03 00:33:04;;;;;;;;;;;8.90;99.90;;;;;;5012109;28;19967;-75
2022/12/03 00:35:30;;;;;;;;;;;9.00;99.90;;;;;;5012435;28;20335;-76
2022/12/03 00:37:56;;;;;;;;;;;9.00;99.90;;;;;;5012449;28;20001;-76
2022/12/03 00:40:21;;;;;;;;;;;9.10;99.90;;;;;;5012964;28;19913;-77
2022/12/03 00:42:47;;;;;;;;;;;9.10;99.90;;;;;;5012259;28;19936;-79
2022/12/03 00:45:12;;;;;;;;;;;9.10;99.90;;;;;;5012453;28;20004;-77
2022/12/03 00:47:38;;;;;;;;;;;9.10;99.90;;;;;;5012689;28;19933;-77
2022/12/03 00:50:04;;;;;;;;;;;9.10;99.90;;;;;;5010810;28;19914;-78
2022/12/03 00:52:29;;;;;;;;;;;9.10;99.90;;;;;;5012953;28;19954;-77
2022/12/03 00:54:55;;;;;;;;;;;9.10;99.90;;;;;;5011849;28;20014;-77
2022/12/03 00:57:21;;;;;;;;;;;9.10;99.90;;;;;;5012804;28;20008;-77
2022/12/03 00:59:46;;;;;;;;;;;9.10;99.90;;;;;;5011076;28;20346;-78
2022/12/03 01:02:12;;;;;;;;;;;9.00;99.90;;;;;;5012110;28;19939;-79
2022/12/03 01:04:37;;;;;;;;;;;9.10;99.90;;;;;;5012833;28;19956;-79
2022/12/03 01:07:03;;;;;;;;;;;9.10;99.90;;;;;;5012375;28;19909;-79
2022/12/03 01:09:29;;;;;;;;;;;9.10;99.90;;;;;;5012722;28;19913;-79
2022/12/03 01:11:54;;;;;;;;;;;9.10;99.90;;;;;;5012673;28;20347;-79
2022/12/03 01:14:20;;;;;;;;;;;9.10;99.90;;;;;;5012531;28;19917;-79
2022/12/03 01:16:46;;;;;;;;;;;9.10;99.90;;;;;;5012261;28;19940;-79
2022/12/03 01:19:15;;;;;;;;;;;9.10;99.90;;;;;;5011641;28;19918;-79
2022/12/03 01:21:50;;;;;;;;;;;9.10;99.90;;;;;;5010877;28;20406;-79
2022/12/03 01:24:16;;;;;;;;;;;9.10;99.90;;;;;;5010471;28;20348;-79
2022/12/03 01:26:42;;;;;;;;;;;9.10;99.90;;;;;;5011979;28;19975;-79
2022/12/03 01:29:08;;;;;;;;;;;9.00;99.90;;;;;;5011525;28;20328;-79
2022/12/03 01:34:17;;;;;;;;;;;9.00;99.90;;;;;;5011762;28;20022;-79
2022/12/03 01:36:43;;;;;;;;;;;9.00;99.90;;;;;;5011517;28;19909;-78
2022/12/03 01:39:09;;;;;;;;;;;9.00;99.90;;;;;;5011247;28;19945;-79
2022/12/03 01:41:35;;;;;;;;;;;9.00;99.90;;;;;;5012031;28;19909;-79
2022/12/03 01:44:01;;;;;;;;;;;9.00;99.90;;;;;;5011387;28;19910;-79
2022/12/03 01:46:30;;;;;;;;;;;9.00;99.90;;;;;;5011839;28;19910;-80
2022/12/03 01:48:56;;;;;;;;;;;9.00;99.90;;;;;;5010991;28;20008;-80
2022/12/03 01:51:21;;;;;;;;;;;8.90;99.90;;;;;;5011751;28;19981;-80
2022/12/03 01:53:47;;;;;;;;;;;8.90;99.90;;;;;;5011547;28;19916;-80
2022/12/03 01:56:14;;;;;;;;;;;8.90;99.90;;;;;;5009592;28;19906;-80
2022/12/03 01:58:40;;;;;;;;;;;9.00;99.90;;;;;;5011260;28;19957;-80
2022/12/03 02:01:09;;;;;;;;;;;9.00;99.90;;;;;;5011056;28;20029;-79
2022/12/03 02:03:35;;;;;;;;;;;9.10;99.90;;;;;;5010848;28;20358;-80
2022/12/03 02:06:00;;;;;;;;;;;9.10;99.90;;;;;;5011232;28;19909;-79
2022/12/03 02:08:30;;;;;;;;;;;9.10;99.90;;;;;;5011301;28;19988;-79
2022/12/03 02:11:04;;;;;;;;;;;9.10;99.90;;;;;;5010736;28;19917;-78
2022/12/03 02:13:30;;;;;;;;;;;9.10;99.90;;;;;;5011577;28;20005;-78
2022/12/03 02:15:56;;;;;;;;;;;9.10;99.90;;;;;;5010794;28;19916;-82
2022/12/03 02:18:22;;;;;;;;;;;9.10;99.90;;;;;;5011175;28;20016;-79
2022/12/03 02:20:52;;;;;;;;;;;9.10;99.90;;;;;;5011366;28;20102;-79
2022/12/03 02:23:30;;;;;;;;;;;9.10;99.90;;;;;;5010828;28;19932;-78
2022/12/03 02:25:55;;;;;;;;;;;9.10;99.90;;;;;;5010737;28;19914;-80
2022/12/03 02:28:21;;;;;;;;;;;9.10;99.90;;;;;;5011596;28;20438;-77
2022/12/03 02:30:46;;;;;;;;;;;9.10;99.90;;;;;;5011379;28;20012;-78
2022/12/03 02:33:12;;;;;;;;;;;9.00;99.90;;;;;;5010706;28;20343;-78
2022/12/03 02:35:38;;;;;;;;;;;9.10;99.90;;;;;;5011021;28;20274;-78
2022/12/03 02:38:07;;;;;;;;;;;9.00;99.90;;;;;;5011064;28;19910;-79
2022/12/03 02:40:32;;;;;;;;;;;9.00;99.90;;;;;;5011175;28;20354;-78
2022/12/03 02:42:59;;;;;;;;;;;9.00;99.90;;;;;;5013015;28;19909;-79
2022/12/03 02:45:33;;;;;;;;;;;9.00;99.90;;;;;;5015047;28;20000;-77
2022/12/03 02:48:04;;;;;;;;;;;9.00;99.90;;;;;;5014879;28;20280;-79
2022/12/03 02:50:34;;;;;;;;;;;9.00;99.90;;;;;;5014820;28;19925;-78
2022/12/03 02:53:01;;;;;;;;;;;9.00;99.90;;;;;;5014665;28;20378;-78
2022/12/03 02:55:28;;;;;;;;;;;9.00;99.90;;;;;;5014831;28;20319;-79
2022/12/03 02:57:53;;;;;;;;;;;9.00;99.90;;;;;;5014891;28;19916;-78
2022/12/03 03:00:21;;;;;;;;;;;9.00;99.90;;;;;;5014919;28;20339;-79
2022/12/03 03:02:49;;;;;;;;;;;9.00;99.90;;;;;;5014363;28;19962;-79
2022/12/03 03:05:16;;;;;;;;;;;8.90;99.90;;;;;;5014575;28;19909;-79
2022/12/03 03:07:42;;;;;;;;;;;8.90;99.90;;;;;;5015023;28;19952;-79
2022/12/03 03:10:10;;;;;;;;;;;8.90;99.90;;;;;;5014206;28;19921;-79
2022/12/03 03:12:35;;;;;;;;;;;8.90;99.90;;;;;;5014599;28;19952;-79
2022/12/03 03:15:01;;;;;;;;;;;8.90;99.90;;;;;;5014111;28;19952;-79
2022/12/03 03:17:26;;;;;;;;;;;8.80;99.90;;;;;;5014492;28;19910;-79
2022/12/03 03:19:52;;;;;;;;;;;8.80;99.90;;;;;;5014674;28;20335;-79
2022/12/03 03:22:18;;;;;;;;;;;8.70;99.90;;;;;;5012698;28;19976;-78
2022/12/03 03:24:43;;;;;;;;;;;8.70;99.90;;;;;;5012915;28;20011;-78
2022/12/03 03:27:09;;;;;;;;;;;8.60;99.90;;;;;;5014211;28;19910;-79
2022/12/03 03:29:34;;;;;;;;;;;8.60;99.90;;;;;;5014220;28;19961;-79
2022/12/03 03:32:01;;;;;;;;;;;8.50;99.90;;;;;;5013673;28;20318;-81
2022/12/03 03:34:27;;;;;;;;;;;8.50;99.90;;;;;;5014346;28;19910;-78
2022/12/03 03:36:53;;;;;;;;;;;8.40;99.90;;;;;;5014153;28;19915;-78
2022/12/03 03:39:18;;;;;;;;;;;8.40;99.90;;;;;;5012512;28;20162;-78
2022/12/03 03:41:45;;;;;;;;;;;8.30;99.90;;;;;;5014009;28;19909;-79
2022/12/03 03:44:10;;;;;;;;;;;8.20;99.90;;;;;;5014099;28;20350;-78
2022/12/03 03:46:36;;;;;;;;;;;8.20;99.90;;;;;;5012718;28;19909;-78
2022/12/03 03:49:02;;;;;;;;;;;8.20;99.90;;;;;;5012379;28;19959;-80
2022/12/03 03:51:28;;;;;;;;;;;8.10;99.90;;;;;;5013753;28;20437;-78
2022/12/03 03:53:54;;;;;;;;;;;8.10;99.90;;;;;;5012312;28;19909;-78
2022/12/03 03:56:20;;;;;;;;;;;8.10;99.90;;;;;;5013685;28;20105;-79
2022/12/03 03:58:45;;;;;;;;;;;8.10;99.90;;;;;;5013773;28;19909;-78
2022/12/03 04:01:12;;;;;;;;;;;8.00;99.90;;;;;;5013519;28;19910;-78
2022/12/03 04:03:37;;;;;;;;;;;8.00;99.90;;;;;;5013609;28;19920;-78
2022/12/03 04:06:03;;;;;;;;;;;8.00;99.90;;;;;;5014109;28;19910;-80
2022/12/03 04:08:28;;;;;;;;;;;7.90;99.90;;;;;;5013779;28;19916;-79
2022/12/03 04:13:38;;;;;;;;;;;7.80;99.90;;;;;;5013762;28;20346;-77
2022/12/03 04:16:04;;;;;;;;;;;7.80;99.90;;;;;;5013454;28;19909;-82
2022/12/03 04:18:41;;;;;;;;;;;7.80;99.90;;;;;;5013493;28;20334;-78
2022/12/03 04:23:51;;;;;;;;;;;7.70;99.90;;;;;;5036897;28;19920;-78
2022/12/03 04:29:01;;;;;;;;;;;7.70;99.90;;;;;;5037126;28;19931;-78
2022/12/03 04:36:56;;;;;;;;;;;7.70;99.90;;;;;;5037075;28;19976;-79
2022/12/03 04:39:21;;;;;;;;;;;7.70;99.90;;;;;;5036416;28;19913;-78
2022/12/03 04:41:47;;;;;;;;;;;7.60;99.90;;;;;;5024254;28;19979;-77
2022/12/03 04:46:56;;;;;;;;;;;7.70;99.90;;;;;;5019025;28;19916;-77
2022/12/03 04:49:22;;;;;;;;;;;7.80;99.90;;;;;;5015562;28;20368;-78
2022/12/03 04:51:48;;;;;;;;;;;7.80;99.90;;;;;;5014922;28;19952;-78
2022/12/03 04:54:13;;;;;;;;;;;7.80;99.90;;;;;;5015362;28;19910;-78
2022/12/03 04:56:39;;;;;;;;;;;7.90;99.90;;;;;;5015608;28;19913;-78
2022/12/03 04:59:05;;;;;;;;;;;7.80;99.90;;;;;;5015365;28;20267;-83
2022/12/03 05:01:30;;;;;;;;;;;7.90;99.90;;;;;;5014989;28;19955;-77
2022/12/03 05:03:56;;;;;;;;;;;7.90;99.90;;;;;;5012906;28;19910;-78
2022/12/03 05:06:21;;;;;;;;;;;7.90;99.90;;;;;;5012303;28;19917;-78
2022/12/03 05:08:47;;;;;;;;;;;8.00;99.90;;;;;;5014239;28;20359;-77
2022/12/03 05:11:13;;;;;;;;;;;8.00;99.90;;;;;;5014557;28;20000;-78
2022/12/03 05:13:38;;;;;;;;;;;8.00;99.90;;;;;;5013802;28;20363;-77
2022/12/03 05:16:04;;;;;;;;;;;8.10;99.90;;;;;;5012696;28;19910;-77
2022/12/03 05:18:29;;;;;;;;;;;8.10;99.90;;;;;;5013500;28;19928;-78
2022/12/03 05:20:55;;;;;;;;;;;8.20;99.90;;;;;;5014043;28;20283;-79
2022/12/03 05:23:21;;;;;;;;;;;8.20;99.90;;;;;;5013173;28;19937;-78
2022/12/03 05:25:46;;;;;;;;;;;8.30;99.90;;;;;;5013659;28;20431;-78
2022/12/03 05:28:12;;;;;;;;;;;8.30;99.90;;;;;;5013214;28;20067;-78
2022/12/03 05:30:37;;;;;;;;;;;8.30;99.90;;;;;;5013473;28;19922;-78
2022/12/03 05:33:03;;;;;;;;;;;8.40;99.90;;;;;;5013637;28;20000;-77
2022/12/03 05:35:28;;;;;;;;;;;8.40;99.90;;;;;;5012828;28;20382;-77
2022/12/03 05:37:54;;;;;;;;;;;8.40;99.90;;;;;;5013603;28;19952;-78
2022/12/03 05:40:20;;;;;;;;;;;8.40;99.90;;;;;;5012274;28;19916;-77
2022/12/03 05:43:00;;;;;;;;;;;8.50;99.90;;;;;;5011761;28;19910;-77
2022/12/03 05:45:28;;;;;;;;;;;8.50;99.90;;;;;;5012501;28;19921;-78
2022/12/03 05:47:54;;;;;;;;;;;8.50;99.90;;;;;;5012758;28;20279;-78
2022/12/03 05:50:21;;;;;;;;;;;8.50;99.90;;;;;;5012362;28;19924;-77
2022/12/03 05:52:46;;;;;;;;;;;8.50;99.90;;;;;;5012624;28;19941;-78
2022/12/03 05:55:12;;;;;;;;;;;8.50;99.90;;;;;;5012368;28;19924;-79
2022/12/03 05:57:38;;;;;;;;;;;8.50;99.90;;;;;;5012711;28;20008;-81
2022/12/03 06:00:05;;;;;;;;;;;8.50;99.90;;;;;;5013177;28;19993;-78
2022/12/03 06:02:31;;;;;;;;;;;8.50;99.90;;;;;;5012142;28;19910;-78
2022/12/03 06:04:56;;;;;;;;;;;8.50;99.90;;;;;;5012694;28;19910;-78
2022/12/03 06:07:22;;;;;;;;;;;8.50;99.90;;;;;;5011781;28;19988;-78
2022/12/03 06:09:48;;;;;;;;;;;8.50;99.90;;;;;;5011749;28;19914;-78
2022/12/03 06:12:13;;;;;;;;;;;8.50;99.90;;;;;;5011383;28;19924;-78
2022/12/03 06:14:39;;;;;;;;;;;8.50;99.90;;;;;;5012424;28;19960;-77
2022/12/03 06:17:04;;;;;;;;;;;8.50;99.90;;;;;;5013273;28;19996;-77
2022/12/03 06:19:30;;;;;;;;;;;8.50;99.90;;;;;;5015993;28;19967;-79
2022/12/03 06:21:55;;;;;;;;;;;8.50;99.90;;;;;;5015941;28;19910;-78
2022/12/03 06:24:21;;;;;;;;;;;8.50;99.90;;;;;;5016165;28;19984;-78
2022/12/03 06:26:46;;;;;;;;;;;8.50;99.90;;;;;;5016605;28;19910;-78
2022/12/03 06:29:12;;;;;;;;;;;8.50;99.90;;;;;;5014370;28;19918;-82
2022/12/03 06:31:38;;;;;;;;;;;8.50;99.90;;;;;;5015622;28;19923;-77
2022/12/03 06:34:03;;;;;;;;;;;8.50;99.90;;;;;;5015935;28;20052;-77
2022/12/03 06:36:29;;;;;;;;;;;8.50;99.90;;;;;;5015625;28;19917;-78
2022/12/03 06:38:54;;;;;;;;;;;8.50;99.90;;;;;;5016333;28;19914;-78
2022/12/03 06:41:20;;;;;;;;;;;8.50;99.90;;;;;;5015555;28;20051;-78
2022/12/03 06:43:45;;;;;;;;;;;8.50;99.90;;;;;;5016583;28;19917;-78
2022/12/03 06:46:11;;;;;;;;;;;8.50;99.90;;;;;;5015897;28;20030;-82
2022/12/03 06:48:36;;;;;;;;;;;8.50;99.90;;;;;;5016058;28;19910;-79
2022/12/03 06:51:02;;;;;;;;;;;8.50;99.90;;;;;;5016156;28;19917;-78
2022/12/03 06:53:28;;;;;;;;;;;8.50;99.90;;;;;;5015897;28;19909;-79
2022/12/03 06:55:53;;;;;;;;;;;8.50;99.90;;;;;;5016279;28;19914;-79
2022/12/03 06:58:19;;;;;;;;;;;8.50;99.90;;;;;;5015472;28;20312;-79
2022/12/03 07:00:44;;;;;;;;;;;8.50;99.90;;;;;;5016250;28;19909;-78
2022/12/03 07:03:10;;;;;;;;;;;8.50;99.90;;;;;;5015991;28;20331;-79
2022/12/03 07:05:36;;;;;;;;;;;8.50;99.90;;;;;;5014955;28;19951;-78
2022/12/03 07:08:01;;;;;;;;;;;8.50;99.90;;;;;;5015772;28;19917;-78
2022/12/03 07:10:27;;;;;;;;;;;8.50;99.90;;;;;;5013687;28;19917;-79
2022/12/03 07:12:52;;;;;;;;;;;8.50;99.90;;;;;;5015383;28;20404;-78
2022/12/03 07:15:18;;;;;;;;;;;8.50;99.90;;;;;;5014564;28;19917;-79
2022/12/03 07:17:44;;;;;;;;;;;8.50;99.90;;;;;;5015200;28;19910;-78
2022/12/03 07:20:09;;;;;;;;;;;8.50;99.90;;;;;;5014757;28;19910;-78
2022/12/03 07:22:35;;;;;;;;;;;8.50;99.90;;;;;;5014465;28;19924;-79
2022/12/03 07:25:00;;;;;;;;;;;8.50;99.90;;;;;;5014714;28;19910;-78
2022/12/03 07:27:27;;;;;;;;;;;8.50;99.90;;;;;;5014077;28;20332;-79
2022/12/03 07:29:53;;;;;;;;;;;8.50;99.90;;;;;;5014512;28;19940;-78
2022/12/03 07:32:18;;;;;;;;;;;8.50;99.90;;;;;;5014288;28;20428;-78
2022/12/03 07:34:44;;;;;;;;;;;8.50;99.90;;;;;;5014269;28;20278;-78
2022/12/03 07:37:09;;;;;;;;;;;8.50;99.90;;;;;;5014913;28;19972;-78
2022/12/03 07:39:35;;;;;;;;;;;8.50;99.90;;;;;;5013958;28;19948;-78
2022/12/03 07:42:01;;;;;;;;;;;8.50;99.90;;;;;;5012658;28;19963;-77
2022/12/03 07:44:27;;;;;;;;;;;8.50;99.90;;;;;;5013554;28;20435;-78
2022/12/03 07:46:52;;;;;;;;;;;8.50;99.90;;;;;;5013975;28;20216;-79
2022/12/03 07:49:18;;;;;;;;;;;8.50;99.90;;;;;;5013430;28;19924;-79
2022/12/03 07:51:52;;;;;;;;;;;8.50;99.90;;;;;;5013424;28;19913;-78
2022/12/03 07:54:24;;;;;;;;;;;8.50;99.90;;;;;;5013535;28;20314;-81
2022/12/03 07:56:50;;;;;;;;;;;8.50;99.90;;;;;;5013733;28;19949;-78
2022/12/03 07:59:16;;;;;;;;;;;8.50;99.90;;;;;;5013087;28;19909;-81
2022/12/03 08:01:41;;;;;;;;;;;8.50;99.90;;;;;;5011825;28;19919;-78
2022/12/03 08:04:07;;;;;;;;;;;8.50;99.90;;;;;;5013681;28;20247;-78
2022/12/03 08:06:33;;;;;;;;;;;8.50;99.90;;;;;;5013040;28;19910;-78
2022/12/03 08:08:59;;;;;;;;;;;8.60;99.90;;;;;;5013901;28;19910;-77
2022/12/03 08:11:27;;;;;;;;;;;8.50;99.90;;;;;;5012542;28;19917;-78
2022/12/03 08:13:52;;;;;;;;;;;8.60;99.90;;;;;;5013209;28;19936;-78
2022/12/03 08:16:19;;;;;;;;;;;8.50;99.90;;;;;;5012882;28;20366;-82
2022/12/03 08:18:45;;;;;;;;;;;8.60;99.90;;;;;;5013361;28;19910;-79
2022/12/03 08:21:12;;;;;;;;;;;8.60;99.90;;;;;;5011450;28;19920;-78
2022/12/03 08:23:38;;;;;;;;;;;8.60;99.90;;;;;;5012562;28;19917;-78
2022/12/03 08:26:10;;;;;;;;;;;8.60;99.90;;;;;;5013299;28;20207;-78
2022/12/03 08:28:36;;;;;;;;;;;8.60;99.90;;;;;;5012348;28;20076;-78
2022/12/03 08:31:16;;;;;;;;;;;8.60;99.90;;;;;;5012293;28;20024;-77
2022/12/03 08:33:42;;;;;;;;;;;8.50;99.90;;;;;;5012753;28;19932;-78
2022/12/03 08:36:35;;;;;;;;;;;8.50;99.90;;;;;;5012789;28;19910;-78
2022/12/03 08:39:04;;;;;;;;;;;8.60;99.90;;;;;;5010867;28;19914;-78
2022/12/03 08:44:24;;;;;;;;;;;8.60;99.90;;;;;;5012682;28;19917;-78
2022/12/03 08:46:58;;;;;;;;;;;8.60;99.90;;;;;;5013021;28;19917;-78
2022/12/03 08:49:24;;;;;;;;;;;8.60;99.90;;;;;;5012775;28;20355;-78
2022/12/03 08:51:53;;;;;;;;;;;8.60;99.90;;;;;;5012670;28;19955;-78
2022/12/03 08:54:19;;;;;;;;;;;8.60;99.90;;;;;;5012475;28;19910;-78
2022/12/03 08:56:44;;;;;;;;;;;8.60;99.90;;;;;;5011170;28;20385;-78
2022/12/03 08:59:19;;;;;;;;;;;8.60;99.90;;;;;;5012845;28;19944;-78
2022/12/03 09:01:45;;;;;;;;;;;8.60;99.90;;;;;;5012646;28;19910;-77
2022/12/03 09:04:17;;;;;;;;;;;8.60;99.90;;;;;;5012626;28;19916;-77
2022/12/03 09:06:42;;;;;;;;;;;8.60;99.90;;;;;;5011889;28;19964;-79
2022/12/03 09:09:08;;;;;;;;;;;8.60;99.90;;;;;;5012165;28;19909;-78
2022/12/03 09:11:34;;;;;;;;;;;8.60;99.90;;;;;;5011931;28;19914;-79
2022/12/03 09:13:59;;;;;;;;;;;8.60;99.90;;;;;;5012424;28;19909;-79
2022/12/03 09:16:25;;;;;;;;;;;8.60;99.90;;;;;;5010114;28;19933;-79
2022/12/03 09:18:50;;;;;;;;;;;8.60;99.90;;;;;;5012031;28;19909;-78
2022/12/03 09:21:16;;;;;;;;;;;8.60;99.90;;;;;;5012120;28;19983;-78
2022/12/03 09:23:41;;;;;;;;;;;8.60;99.90;;;;;;5010085;28;20404;-79
2022/12/03 09:26:07;;;;;;;;;;;8.60;99.90;;;;;;5011918;28;19910;-79
2022/12/03 09:28:32;;;;;;;;;;;8.60;99.90;;;;;;5011697;28;20271;-80
2022/12/03 09:30:58;;;;;;;;;;;8.60;99.90;;;;;;5011850;28;19921;-79
2022/12/03 09:33:23;;;;;;;;;;;8.60;99.90;;;;;;5011625;28;19910;-80
2022/12/03 09:35:49;;;;;;;;;;;8.70;99.90;;;;;;5011733;28;20466;-79
2022/12/03 09:38:15;;;;;;;;;;;8.60;99.90;;;;;;5011858;28;19916;-78
2022/12/03 09:40:41;;;;;;;;;;;8.70;99.90;;;;;;5011417;28;19936;-78
2022/12/03 09:43:06;;;;;;;;;;;8.60;99.90;;;;;;5012755;28;19952;-78
2022/12/03 09:45:32;;;;;;;;;;;8.60;99.90;;;;;;5028945;28;19916;-79
2022/12/03 09:48:00;;;;;;;;;;;8.60;99.90;;;;;;5033637;28;19918;-77
2022/12/03 09:50:26;;;;;;;;;;;8.60;99.90;;;;;;5022726;28;19921;-83
2022/12/03 09:52:53;;;;;;;;;;;8.50;99.90;;;;;;5027746;28;19921;-78
2022/12/03 09:55:23;;;;;;;;;;;8.40;99.90;;;;;;5030154;28;19925;-77
2022/12/03 09:57:52;;;;;;;;;;;8.50;99.90;;;;;;5032839;28;19905;-76
2022/12/03 10:00:20;;;;;;;;;;;8.50;99.90;;;;;;5022264;28;19915;-77
2022/12/03 10:02:46;;;;;;;;;;;8.50;99.90;;;;;;5010930;28;19905;-77
2022/12/03 10:05:12;;;;;;;;;;;8.50;99.90;;;;;;5012146;28;19995;-77
2022/12/03 10:07:39;;;;;;;;;;;8.40;99.90;;;;;;5011710;28;20073;-77
2022/12/03 10:10:06;;;;;;;;;;;8.40;99.90;;;;;;5010384;28;20022;-77
2022/12/03 10:12:31;;;;;;;;;;;8.40;99.90;;;;;;5010125;28;19997;-77
2022/12/03 10:14:57;;;;;;;;;;;8.30;99.90;;;;;;5012083;28;20012;-77
2022/12/03 10:17:22;;;;;;;;;;;8.30;99.90;;;;;;5011926;28;20353;-77
2022/12/03 10:19:48;;;;;;;;;;;8.20;99.90;;;;;;5011302;28;19913;-77
2022/12/03 10:22:14;;;;;;;;;;;8.20;99.90;;;;;;5011831;28;19909;-78
2022/12/03 10:24:39;;;;;;;;;;;8.10;99.90;;;;;;5011426;28;19910;-79
2022/12/03 10:27:21;;;;;;;;;;;8.10;99.90;;;;;;5011939;28;19909;-77
2022/12/03 10:29:54;;;;;;;;;;;8.00;99.90;;;;;;5010045;28;20434;-77
2022/12/03 10:32:23;;;;;;;;;;;8.00;99.90;;;;;;5011839;28;19921;-77
2022/12/03 10:34:49;;;;;;;;;;;8.00;99.90;;;;;;5011750;28;19976;-79
2022/12/03 10:37:19;;;;;;;;;;;8.00;99.90;;;;;;5012538;28;20374;-78
2022/12/03 10:39:53;;;;;;;;;;;8.00;99.90;;;;;;5011063;28;20000;-81
2022/12/03 10:42:19;;;;;;;;;;;8.00;99.90;;;;;;5012299;28;20278;-78
2022/12/03 10:44:44;;;;;;;;;;;8.00;99.90;;;;;;5011181;28;19910;-79
2022/12/03 10:47:11;;;;;;;;;;;8.00;99.90;;;;;;5009959;28;20304;-78
2022/12/03 10:49:37;;;;;;;;;;;8.10;99.90;;;;;;5010646;28;19978;-79
2022/12/03 10:52:04;;;;;;;;;;;8.10;99.90;;;;;;5011633;28;19910;-79
2022/12/03 10:54:30;;;;;;;;;;;8.10;99.90;;;;;;5011469;28;20406;-83
2022/12/03 10:56:56;;;;;;;;;;;8.10;99.90;;;;;;5010952;28;19972;-79
2022/12/03 10:59:23;;;;;;;;;;;8.10;99.90;;;;;;5012547;28;20379;-78
2022/12/03 11:01:49;;;;;;;;;;;8.20;99.90;;;;;;5011763;28;19936;-78
2022/12/03 11:04:27;;;;;;;;;;;8.20;99.90;;;;;;5014216;28;19910;-78
2022/12/03 11:06:53;;;;;;;;;;;8.30;99.90;;;;;;5014566;28;19916;-78
2022/12/03 11:09:20;;;;;;;;;;;8.40;99.90;;;;;;5013652;28;20400;-79
2022/12/03 11:11:45;;;;;;;;;;;8.40;99.90;;;;;;5014318;28;19909;-79
2022/12/03 11:14:11;;;;;;;;;;;8.50;99.90;;;;;;5014976;28;19967;-79
2022/12/03 11:16:40;;;;;;;;;;;8.50;99.90;;;;;;5014864;28;20272;-79
2022/12/03 11:19:11;;;;;;;;;;;8.60;99.90;;;;;;5014707;28;19972;-78
2022/12/03 11:21:55;;;;;;;;;;;8.60;99.90;;;;;;5015094;28;19910;-80
2022/12/03 11:24:21;;;;;;;;;;;8.70;99.90;;;;;;5016604;28;19932;-78
2022/12/03 11:26:49;;;;;;;;;;;8.70;99.90;;;;;;5014260;28;20339;-78
2022/12/03 11:29:15;;;;;;;;;;;8.80;99.90;;;;;;5016328;28;19909;-79
2022/12/03 11:31:41;;;;;;;;;;;8.80;99.90;;;;;;5014091;28;19928;-80
2022/12/03 11:34:19;;;;;;;;;;;8.80;99.90;;;;;;5014320;28;20367;-79
2022/12/03 11:37:03;;;;;;;;;;;8.80;99.90;;;;;;5014852;28;19909;-78
2022/12/03 11:39:47;;;;;;;;;;;8.90;99.90;;;;;;5014456;28;20060;-79
2022/12/03 11:42:24;;;;;;;;;;;8.90;99.90;;;;;;5014912;28;20016;-79
2022/12/03 11:45:05;;;;;;;;;;;9.00;99.90;;;;;;5014471;28;19920;-79
2022/12/03 11:47:41;;;;;;;;;;;9.00;99.90;;;;;;5014369;28;19917;-79
2022/12/03 11:50:21;;;;;;;;;;;8.90;99.90;;;;;;5012569;28;20342;-80
2022/12/03 11:52:51;;;;;;;;;;;8.90;99.90;;;;;;5014268;28;19909;-77
2022/12/03 11:55:22;;;;;;;;;;;8.90;99.90;;;;;;5015044;28;19909;-78
2022/12/03 11:57:48;;;;;;;;;;;9.00;99.90;;;;;;5013359;28;19997;-78
2022/12/03 12:00:21;;;;;;;;;;;9.00;99.90;;;;;;5014612;28;19910;-79
2022/12/03 12:02:48;;;;;;;;;;;9.00;99.90;;;;;;5013046;28;19909;-79
2022/12/03 12:05:19;;;;;;;;;;;9.00;99.90;;;;;;5013884;28;20012;-78
2022/12/03 12:07:46;;;;;;;;;;;9.00;99.90;;;;;;5013668;28;19910;-78
2022/12/03 12:10:32;;;;;;;;;;;9.00;99.90;;;;;;5013830;28;19922;-79
2022/12/03 12:12:58;;;;;;;;;;;9.10;99.90;;;;;;5006244;28;20055;-78
2022/12/03 12:15:40;;;;;;;;;;;9.10;99.90;;;;;;5014232;28;19941;-79
2022/12/03 12:18:24;;;;;;;;;;;9.00;99.90;;;;;;5013756;28;20204;-78
2022/12/03 12:20:49;;;;;;;;;;;9.10;99.90;;;;;;5011960;28;19917;-79
2022/12/03 12:23:26;;;;;;;;;;;9.10;99.90;;;;;;5013760;28;19909;-79
2022/12/03 12:25:52;;;;;;;;;;;9.10;99.90;;;;;;5013071;28;19975;-79
2022/12/03 12:28:17;;;;;;;;;;;9.10;99.90;;;;;;5013680;28;20343;-79
2022/12/03 12:30:43;;;;;;;;;;;9.10;99.90;;;;;;5012300;28;20020;-78
2022/12/03 12:33:22;;;;;;;;;;;9.20;99.90;;;;;;5013405;28;19913;-79
2022/12/03 12:35:48;;;;;;;;;;;9.20;99.90;;;;;;5012576;28;19948;-79
2022/12/03 12:38:15;;;;;;;;;;;9.20;99.90;;;;;;5013355;28;19988;-79
2022/12/03 12:40:43;;;;;;;;;;;9.20;99.90;;;;;;5012684;28;19910;-79
2022/12/03 12:43:09;;;;;;;;;;;9.20;99.90;;;;;;5012892;28;19910;-79
2022/12/03 12:45:35;;;;;;;;;;;9.20;99.90;;;;;;5011742;28;19956;-79
2022/12/03 12:48:06;;;;;;;;;;;9.20;99.90;;;;;;5012847;28;19909;-79
2022/12/03 12:50:32;;;;;;;;;;;9.20;99.90;;;;;;5011584;28;19921;-79
2022/12/03 12:53:00;;;;;;;;;;;9.20;99.90;;;;;;5012562;28;19917;-79
2022/12/03 12:55:26;;;;;;;;;;;9.20;99.90;;;;;;5012595;28;20327;-79
2022/12/03 12:57:52;;;;;;;;;;;9.20;99.90;;;;;;5012160;28;19976;-79
2022/12/03 13:00:19;;;;;;;;;;;9.10;99.90;;;;;;5012597;28;19910;-79
2022/12/03 13:02:49;;;;;;;;;;;9.10;99.90;;;;;;5012251;28;19949;-79
2022/12/03 13:05:15;;;;;;;;;;;9.10;99.90;;;;;;5012568;28;19957;-79
2022/12/03 13:07:41;;;;;;;;;;;9.20;99.90;;;;;;5012158;28;19913;-80
2022/12/03 13:10:20;;;;;;;;;;;9.20;99.90;;;;;;5012445;28;19914;-79
2022/12/03 13:12:46;;;;;;;;;;;9.20;99.90;;;;;;5011895;28;20271;-80
2022/12/03 13:15:37;;;;;;;;;;;9.10;99.90;;;;;;4988958;28;20896;-81
2022/12/03 13:18:23;;;;;;;;;;;9.10;99.90;;;;;;5011472;28;20105;-77
2022/12/03 13:20:49;;;;;;;;;;;9.10;99.90;;;;;;5009983;28;20030;-79
2022/12/03 13:23:31;;;;;;;;;;;9.00;99.90;;;;;;5012178;28;19985;-79
2022/12/03 13:25:58;;;;;;;;;;;9.00;99.90;;;;;;5011567;28;19931;-79
2022/12/03 13:28:24;;;;;;;;;;;9.00;99.90;;;;;;5012718;28;19999;-79
2022/12/03 13:30:50;;;;;;;;;;;8.90;99.90;;;;;;5011461;28;20415;-79
2022/12/03 13:33:24;;;;;;;;;;;8.90;99.90;;;;;;5010770;28;19914;-78
2022/12/03 13:35:55;;;;;;;;;;;8.90;99.90;;;;;;5011851;28;19916;-79
2022/12/03 13:38:22;;;;;;;;;;;9.00;99.90;;;;;;5012257;28;19944;-79
2022/12/03 13:42:37;;;;;;;;;;;9.00;99.90;;;;;;5011522;28;19909;-79
2022/12/03 13:43:57;;;;;;;;;;;9.00;99.90;;;;;;5011081;28;19910;-78
2022/12/03 13:46:22;;;;;;;;;;;9.00;99.90;;;;;;5012016;28;19913;-79
2022/12/03 13:48:48;;;;;;;;;;;9.00;99.90;;;;;;5011411;28;19976;-79
2022/12/03 13:51:25;;;;;;;;;;;8.90;99.90;;;;;;5011777;28;19961;-79
2022/12/03 13:53:51;;;;;;;;;;;8.80;99.90;;;;;;5011588;28;19953;-80
2022/12/03 13:56:16;;;;;;;;;;;8.70;99.90;;;;;;5012228;28;19964;-79
2022/12/03 13:58:42;;;;;;;;;;;8.70;99.90;;;;;;5011595;28;20296;-84
2022/12/03 14:01:07;;;;;;;;;;;8.60;99.90;;;;;;5012404;28;20313;-80
2022/12/03 14:03:33;;;;;;;;;;;8.70;99.90;;;;;;5011991;28;19914;-77
2022/12/03 14:05:59;;;;;;;;;;;8.70;99.90;;;;;;5011656;28;19909;-77
2022/12/03 14:08:25;;;;;;;;;;;8.80;99.90;;;;;;5011617;28;19955;-76
2022/12/03 14:10:50;;;;;;;;;;;8.80;99.90;;;;;;5011731;28;20021;-79
2022/12/03 14:13:16;;;;;;;;;;;8.80;99.90;;;;;;5011335;28;20286;-76
2022/12/03 14:15:41;;;;;;;;;;;8.90;99.90;;;;;;5010061;28;19919;-83
2022/12/03 14:18:07;;;;;;;;;;;9.00;99.90;;;;;;5011522;28;20278;-77
2022/12/03 14:20:33;;;;;;;;;;;9.00;99.90;;;;;;5011265;28;19916;-76
2022/12/03 14:22:59;;;;;;;;;;;9.10;99.90;;;;;;5011514;28;20262;-77
2022/12/03 14:25:25;;;;;;;;;;;9.10;99.90;;;;;;5011205;28;20004;-76
2022/12/03 14:27:50;;;;;;;;;;;9.20;99.90;;;;;;5010125;28;19937;-77
2022/12/03 14:30:16;;;;;;;;;;;9.10;99.90;;;;;;5011038;28;20370;-76
2022/12/03 14:32:41;;;;;;;;;;;9.10;99.90;;;;;;5010742;28;20298;-80
2022/12/03 14:35:07;;;;;;;;;;;9.20;99.90;;;;;;5010775;28;20335;-76
2022/12/03 14:37:33;;;;;;;;;;;9.20;99.90;;;;;;5011663;28;19909;-78
2022/12/03 14:39:58;;;;;;;;;;;9.20;99.90;;;;;;5015017;28;19910;-78
2022/12/03 14:42:24;;;;;;;;;;;9.10;99.90;;;;;;5015568;28;19972;-79
2022/12/03 14:44:50;;;;;;;;;;;9.20;99.90;;;;;;5015646;28;20355;-79
2022/12/03 14:47:17;;;;;;;;;;;9.10;99.90;;;;;;5015521;28;19909;-78
2022/12/03 14:49:42;;;;;;;;;;;9.10;99.90;;;;;;5015310;28;20019;-81
2022/12/03 14:52:08;;;;;;;;;;;8.90;99.90;;;;;;5013923;28;20003;-79
2022/12/03 14:54:34;;;;;;;;;;;9.00;99.90;;;;;;5015233;28;19956;-79